sensor_id;sensor_type;location;lat;lon;timestamp;P1;durP1;ratioP1;P2;durP2;ratioP2
39356;SDS011;25077;50.302;18.996;2022-10-15T00:01:34;28.77;;;19.10;;
39356;SDS011;25077;50.302;18.996;2022-10-15T00:04:37;33.43;;;20.40;;
39356;SDS011;25077;50.302;18.996;2022-10-15T00:07:39;31.90;;;19.03;;
39356;SDS011;25077;50.302;18.996;2022-10-15T00:10:41;33.73;;;18.40;;
39356;SDS011;25077;50.302;18.996;2022-10-15T00:13:45;29.67;;;18.90;;
39356;SDS011;25077;50.302;18.996;2022-10-15T00:16:47;31.80;;;19.17;;
39356;SDS011;25077;50.302;18.996;2022-10-15T00:19:50;28.73;;;18.40;;
39356;SDS011;25077;50.302;18.996;2022-10-15T00:22:52;33.00;;;18.50;;
39356;SDS011;25077;50.302;18.996;2022-10-15T00:26:01;29.83;;;18.53;;
39356;SDS011;25077;50.302;18.996;2022-10-15T00:29:05;27.13;;;17.70;;
39356;SDS011;25077;50.302;18.996;2022-10-15T00:32:07;29.50;;;18.47;;
39356;SDS011;25077;50.302;18.996;2022-10-15T00:35:12;30.77;;;18.60;;
39356;SDS011;25077;50.302;18.996;2022-10-15T00:38:14;26.07;;;17.23;;
39356;SDS011;25077;50.302;18.996;2022-10-15T00:41:17;34.00;;;19.17;;
39356;SDS011;25077;50.302;18.996;2022-10-15T00:47:50;33.87;;;20.67;;
39356;SDS011;25077;50.302;18.996;2022-10-15T00:50:53;34.03;;;20.43;;
39356;SDS011;25077;50.302;18.996;2022-10-15T00:53:55;33.93;;;19.80;;
39356;SDS011;25077;50.302;18.996;2022-10-15T00:56:57;33.00;;;20.57;;
39356;SDS011;25077;50.302;18.996;2022-10-15T01:00:03;39.60;;;20.03;;
39356;SDS011;25077;50.302;18.996;2022-10-15T01:03:09;33.03;;;20.47;;
39356;SDS011;25077;50.302;18.996;2022-10-15T01:06:12;34.83;;;21.60;;
39356;SDS011;25077;50.302;18.996;2022-10-15T01:09:16;35.50;;;19.43;;
39356;SDS011;25077;50.302;18.996;2022-10-15T01:12:19;32.27;;;20.30;;
39356;SDS011;25077;50.302;18.996;2022-10-15T01:15:32;35.57;;;21.50;;
39356;SDS011;25077;50.302;18.996;2022-10-15T01:18:39;34.17;;;22.23;;
39356;SDS011;25077;50.302;18.996;2022-10-15T01:21:48;36.37;;;23.00;;
39356;SDS011;25077;50.302;18.996;2022-10-15T01:24:58;44.37;;;27.10;;
39356;SDS011;25077;50.302;18.996;2022-10-15T01:28:14;43.10;;;27.07;;
39356;SDS011;25077;50.302;18.996;2022-10-15T01:31:27;43.53;;;26.33;;
39356;SDS011;25077;50.302;18.996;2022-10-15T01:34:35;41.97;;;25.77;;
39356;SDS011;25077;50.302;18.996;2022-10-15T01:37:45;40.67;;;25.50;;
39356;SDS011;25077;50.302;18.996;2022-10-15T01:40:54;44.63;;;25.97;;
39356;SDS011;25077;50.302;18.996;2022-10-15T01:44:02;42.97;;;26.60;;
39356;SDS011;25077;50.302;18.996;2022-10-15T01:47:34;40.23;;;23.97;;
39356;SDS011;25077;50.302;18.996;2022-10-15T01:50:40;40.90;;;24.40;;
39356;SDS011;25077;50.302;18.996;2022-10-15T01:53:46;36.40;;;21.83;;
39356;SDS011;25077;50.302;18.996;2022-10-15T01:56:51;39.60;;;21.37;;
39356;SDS011;25077;50.302;18.996;2022-10-15T01:59:55;34.10;;;20.57;;
39356;SDS011;25077;50.302;18.996;2022-10-15T02:03:00;29.37;;;21.40;;
39356;SDS011;25077;50.302;18.996;2022-10-15T02:06:04;34.93;;;21.23;;
39356;SDS011;25077;50.302;18.996;2022-10-15T02:09:13;35.07;;;22.63;;
39356;SDS011;25077;50.302;18.996;2022-10-15T02:12:25;44.80;;;26.43;;
39356;SDS011;25077;50.302;18.996;2022-10-15T02:15:34;44.40;;;26.13;;
39356;SDS011;25077;50.302;18.996;2022-10-15T02:18:45;46.47;;;27.27;;
39356;SDS011;25077;50.302;18.996;2022-10-15T02:21:52;50.80;;;29.60;;
39356;SDS011;25077;50.302;18.996;2022-10-15T02:25:01;46.93;;;29.40;;
39356;SDS011;25077;50.302;18.996;2022-10-15T02:28:06;48.90;;;30.13;;
39356;SDS011;25077;50.302;18.996;2022-10-15T02:31:11;44.23;;;28.40;;
39356;SDS011;25077;50.302;18.996;2022-10-15T02:34:18;44.67;;;28.00;;
39356;SDS011;25077;50.302;18.996;2022-10-15T02:37:24;44.83;;;27.50;;
39356;SDS011;25077;50.302;18.996;2022-10-15T02:40:28;39.60;;;25.57;;
39356;SDS011;25077;50.302;18.996;2022-10-15T02:43:36;36.53;;;24.03;;
39356;SDS011;25077;50.302;18.996;2022-10-15T02:46:39;37.03;;;23.40;;
39356;SDS011;25077;50.302;18.996;2022-10-15T02:49:45;40.60;;;24.73;;
39356;SDS011;25077;50.302;18.996;2022-10-15T02:52:47;42.73;;;25.17;;
39356;SDS011;25077;50.302;18.996;2022-10-15T02:55:49;37.80;;;22.93;;
39356;SDS011;25077;50.302;18.996;2022-10-15T02:58:51;38.07;;;22.33;;
39356;SDS011;25077;50.302;18.996;2022-10-15T03:01:54;38.90;;;22.13;;
39356;SDS011;25077;50.302;18.996;2022-10-15T03:04:58;34.47;;;21.50;;
39356;SDS011;25077;50.302;18.996;2022-10-15T03:08:00;37.50;;;21.57;;
39356;SDS011;25077;50.302;18.996;2022-10-15T03:11:03;34.23;;;21.40;;
39356;SDS011;25077;50.302;18.996;2022-10-15T03:14:05;34.80;;;21.17;;
39356;SDS011;25077;50.302;18.996;2022-10-15T03:17:08;31.10;;;20.73;;
39356;SDS011;25077;50.302;18.996;2022-10-15T03:20:12;32.77;;;21.47;;
39356;SDS011;25077;50.302;18.996;2022-10-15T03:23:14;30.03;;;20.20;;
39356;SDS011;25077;50.302;18.996;2022-10-15T03:26:18;29.43;;;19.77;;
39356;SDS011;25077;50.302;18.996;2022-10-15T03:29:20;31.33;;;21.43;;
39356;SDS011;25077;50.302;18.996;2022-10-15T03:32:32;36.07;;;21.07;;
39356;SDS011;25077;50.302;18.996;2022-10-15T03:35:36;36.53;;;23.17;;
39356;SDS011;25077;50.302;18.996;2022-10-15T03:38:39;34.83;;;22.60;;
39356;SDS011;25077;50.302;18.996;2022-10-15T03:41:46;30.93;;;21.37;;
39356;SDS011;25077;50.302;18.996;2022-10-15T03:44:56;34.03;;;21.80;;
39356;SDS011;25077;50.302;18.996;2022-10-15T03:47:58;30.50;;;21.07;;
39356;SDS011;25077;50.302;18.996;2022-10-15T03:51:06;38.23;;;22.63;;
39356;SDS011;25077;50.302;18.996;2022-10-15T03:54:08;33.77;;;22.53;;
39356;SDS011;25077;50.302;18.996;2022-10-15T03:57:18;35.57;;;22.57;;
39356;SDS011;25077;50.302;18.996;2022-10-15T04:00:29;33.97;;;22.63;;
39356;SDS011;25077;50.302;18.996;2022-10-15T04:03:34;39.07;;;22.03;;
39356;SDS011;25077;50.302;18.996;2022-10-15T04:06:38;37.70;;;22.47;;
39356;SDS011;25077;50.302;18.996;2022-10-15T04:09:45;35.37;;;22.33;;
39356;SDS011;25077;50.302;18.996;2022-10-15T04:13:14;32.30;;;20.33;;
39356;SDS011;25077;50.302;18.996;2022-10-15T04:16:16;33.63;;;20.93;;
39356;SDS011;25077;50.302;18.996;2022-10-15T04:19:18;33.13;;;21.27;;
39356;SDS011;25077;50.302;18.996;2022-10-15T04:22:32;31.53;;;21.20;;
39356;SDS011;25077;50.302;18.996;2022-10-15T04:25:36;32.73;;;21.47;;
39356;SDS011;25077;50.302;18.996;2022-10-15T04:28:38;34.23;;;22.33;;
39356;SDS011;25077;50.302;18.996;2022-10-15T04:31:41;30.70;;;20.80;;
39356;SDS011;25077;50.302;18.996;2022-10-15T04:34:45;35.50;;;22.20;;
39356;SDS011;25077;50.302;18.996;2022-10-15T04:37:50;32.77;;;20.80;;
39356;SDS011;25077;50.302;18.996;2022-10-15T04:40:59;33.63;;;20.93;;
39356;SDS011;25077;50.302;18.996;2022-10-15T04:44:14;34.67;;;21.07;;
39356;SDS011;25077;50.302;18.996;2022-10-15T04:47:23;33.07;;;21.37;;
39356;SDS011;25077;50.302;18.996;2022-10-15T04:50:35;32.43;;;20.03;;
39356;SDS011;25077;50.302;18.996;2022-10-15T04:53:56;33.13;;;20.77;;
39356;SDS011;25077;50.302;18.996;2022-10-15T04:56:58;32.97;;;22.07;;
39356;SDS011;25077;50.302;18.996;2022-10-15T05:00:01;29.20;;;20.13;;
39356;SDS011;25077;50.302;18.996;2022-10-15T05:03:06;37.47;;;21.80;;
39356;SDS011;25077;50.302;18.996;2022-10-15T05:06:18;30.63;;;20.03;;
39356;SDS011;25077;50.302;18.996;2022-10-15T05:09:30;33.67;;;21.93;;
39356;SDS011;25077;50.302;18.996;2022-10-15T05:12:32;30.90;;;21.27;;
39356;SDS011;25077;50.302;18.996;2022-10-15T05:15:34;31.87;;;20.53;;
39356;SDS011;25077;50.302;18.996;2022-10-15T05:18:40;34.93;;;20.60;;
39356;SDS011;25077;50.302;18.996;2022-10-15T05:21:44;33.17;;;19.90;;
39356;SDS011;25077;50.302;18.996;2022-10-15T05:24:57;29.70;;;18.53;;
39356;SDS011;25077;50.302;18.996;2022-10-15T05:28:02;30.43;;;18.73;;
39356;SDS011;25077;50.302;18.996;2022-10-15T05:31:04;30.10;;;19.00;;
39356;SDS011;25077;50.302;18.996;2022-10-15T05:34:07;29.97;;;18.10;;
39356;SDS011;25077;50.302;18.996;2022-10-15T05:37:32;29.67;;;19.43;;
39356;SDS011;25077;50.302;18.996;2022-10-15T05:40:36;30.83;;;20.37;;
39356;SDS011;25077;50.302;18.996;2022-10-15T05:43:49;25.67;;;17.90;;
39356;SDS011;25077;50.302;18.996;2022-10-15T05:46:57;28.83;;;18.83;;
39356;SDS011;25077;50.302;18.996;2022-10-15T05:50:00;29.40;;;19.00;;
39356;SDS011;25077;50.302;18.996;2022-10-15T05:53:06;29.87;;;17.40;;
39356;SDS011;25077;50.302;18.996;2022-10-15T05:56:19;22.70;;;17.00;;
39356;SDS011;25077;50.302;18.996;2022-10-15T05:59:22;31.87;;;18.87;;
39356;SDS011;25077;50.302;18.996;2022-10-15T06:02:24;28.97;;;17.30;;
39356;SDS011;25077;50.302;18.996;2022-10-15T06:05:26;27.63;;;17.37;;
39356;SDS011;25077;50.302;18.996;2022-10-15T06:08:28;27.63;;;17.47;;
39356;SDS011;25077;50.302;18.996;2022-10-15T06:11:32;25.27;;;16.30;;
39356;SDS011;25077;50.302;18.996;2022-10-15T06:14:36;26.20;;;17.73;;
39356;SDS011;25077;50.302;18.996;2022-10-15T06:17:40;33.13;;;21.07;;
39356;SDS011;25077;50.302;18.996;2022-10-15T06:20:42;31.17;;;18.30;;
39356;SDS011;25077;50.302;18.996;2022-10-15T06:23:44;31.83;;;18.57;;
39356;SDS011;25077;50.302;18.996;2022-10-15T06:26:48;28.20;;;17.17;;
39356;SDS011;25077;50.302;18.996;2022-10-15T06:29:50;26.37;;;17.03;;
39356;SDS011;25077;50.302;18.996;2022-10-15T06:32:52;30.77;;;17.27;;
39356;SDS011;25077;50.302;18.996;2022-10-15T06:35:54;24.77;;;16.67;;
39356;SDS011;25077;50.302;18.996;2022-10-15T06:38:56;27.40;;;16.47;;
39356;SDS011;25077;50.302;18.996;2022-10-15T06:42:00;23.73;;;16.13;;
39356;SDS011;25077;50.302;18.996;2022-10-15T06:45:12;23.93;;;17.03;;
39356;SDS011;25077;50.302;18.996;2022-10-15T06:48:14;23.37;;;16.80;;
39356;SDS011;25077;50.302;18.996;2022-10-15T06:51:16;30.60;;;17.87;;
39356;SDS011;25077;50.302;18.996;2022-10-15T06:54:23;23.60;;;17.17;;
39356;SDS011;25077;50.302;18.996;2022-10-15T06:57:27;29.20;;;18.00;;
39356;SDS011;25077;50.302;18.996;2022-10-15T07:00:29;27.63;;;18.13;;
39356;SDS011;25077;50.302;18.996;2022-10-15T07:03:31;27.07;;;18.47;;
39356;SDS011;25077;50.302;18.996;2022-10-15T07:06:33;25.67;;;17.43;;
39356;SDS011;25077;50.302;18.996;2022-10-15T07:09:36;28.60;;;18.60;;
39356;SDS011;25077;50.302;18.996;2022-10-15T07:12:39;27.07;;;18.40;;
39356;SDS011;25077;50.302;18.996;2022-10-15T07:15:41;29.57;;;17.93;;
39356;SDS011;25077;50.302;18.996;2022-10-15T07:18:46;32.20;;;19.67;;
39356;SDS011;25077;50.302;18.996;2022-10-15T07:21:48;28.50;;;19.83;;
39356;SDS011;25077;50.302;18.996;2022-10-15T07:24:51;33.03;;;20.00;;
39356;SDS011;25077;50.302;18.996;2022-10-15T07:27:55;32.27;;;20.93;;
39356;SDS011;25077;50.302;18.996;2022-10-15T07:31:01;33.13;;;18.43;;
39356;SDS011;25077;50.302;18.996;2022-10-15T07:34:05;34.53;;;19.53;;
39356;SDS011;25077;50.302;18.996;2022-10-15T07:37:08;28.27;;;17.73;;
39356;SDS011;25077;50.302;18.996;2022-10-15T07:40:10;27.20;;;15.13;;
39356;SDS011;25077;50.302;18.996;2022-10-15T07:43:16;27.00;;;15.77;;
39356;SDS011;25077;50.302;18.996;2022-10-15T07:46:18;27.60;;;14.77;;
39356;SDS011;25077;50.302;18.996;2022-10-15T07:49:23;22.00;;;14.87;;
39356;SDS011;25077;50.302;18.996;2022-10-15T07:52:26;26.77;;;14.23;;
39356;SDS011;25077;50.302;18.996;2022-10-15T07:55:28;20.47;;;13.60;;
39356;SDS011;25077;50.302;18.996;2022-10-15T07:58:31;23.73;;;13.53;;
39356;SDS011;25077;50.302;18.996;2022-10-15T08:01:34;24.50;;;12.30;;
39356;SDS011;25077;50.302;18.996;2022-10-15T08:04:36;17.73;;;12.50;;
39356;SDS011;25077;50.302;18.996;2022-10-15T08:07:38;22.67;;;12.97;;
39356;SDS011;25077;50.302;18.996;2022-10-15T08:10:44;22.37;;;12.30;;
39356;SDS011;25077;50.302;18.996;2022-10-15T08:13:48;19.30;;;11.73;;
39356;SDS011;25077;50.302;18.996;2022-10-15T08:16:50;19.53;;;12.00;;
39356;SDS011;25077;50.302;18.996;2022-10-15T08:19:52;18.93;;;11.40;;
39356;SDS011;25077;50.302;18.996;2022-10-15T08:22:54;16.97;;;11.00;;
39356;SDS011;25077;50.302;18.996;2022-10-15T08:25:57;20.20;;;11.47;;
39356;SDS011;25077;50.302;18.996;2022-10-15T08:29:01;24.43;;;11.87;;
39356;SDS011;25077;50.302;18.996;2022-10-15T08:32:03;19.90;;;11.53;;
39356;SDS011;25077;50.302;18.996;2022-10-15T08:35:06;18.30;;;11.33;;
39356;SDS011;25077;50.302;18.996;2022-10-15T08:38:08;16.10;;;10.87;;
39356;SDS011;25077;50.302;18.996;2022-10-15T08:41:15;15.43;;;11.37;;
39356;SDS011;25077;50.302;18.996;2022-10-15T08:44:26;16.17;;;11.33;;
39356;SDS011;25077;50.302;18.996;2022-10-15T08:47:32;17.73;;;10.87;;
39356;SDS011;25077;50.302;18.996;2022-10-15T08:50:39;17.20;;;10.67;;
39356;SDS011;25077;50.302;18.996;2022-10-15T08:53:43;18.10;;;10.40;;
39356;SDS011;25077;50.302;18.996;2022-10-15T08:56:53;16.10;;;9.37;;
39356;SDS011;25077;50.302;18.996;2022-10-15T09:00:12;15.40;;;9.27;;
39356;SDS011;25077;50.302;18.996;2022-10-15T09:03:24;10.70;;;8.20;;
39356;SDS011;25077;50.302;18.996;2022-10-15T09:06:33;11.97;;;7.70;;
39356;SDS011;25077;50.302;18.996;2022-10-15T09:09:38;11.90;;;7.60;;
39356;SDS011;25077;50.302;18.996;2022-10-15T09:12:47;11.60;;;8.27;;
39356;SDS011;25077;50.302;18.996;2022-10-15T09:15:57;11.97;;;7.53;;
39356;SDS011;25077;50.302;18.996;2022-10-15T09:19:02;11.43;;;7.10;;
39356;SDS011;25077;50.302;18.996;2022-10-15T09:22:08;8.10;;;6.73;;
39356;SDS011;25077;50.302;18.996;2022-10-15T09:25:17;12.90;;;6.77;;
39356;SDS011;25077;50.302;18.996;2022-10-15T09:28:21;14.43;;;6.90;;
39356;SDS011;25077;50.302;18.996;2022-10-15T09:31:31;8.37;;;6.30;;
39356;SDS011;25077;50.302;18.996;2022-10-15T09:34:36;9.73;;;7.07;;
39356;SDS011;25077;50.302;18.996;2022-10-15T09:37:46;9.00;;;5.83;;
39356;SDS011;25077;50.302;18.996;2022-10-15T09:40:56;7.80;;;5.63;;
39356;SDS011;25077;50.302;18.996;2022-10-15T09:44:07;10.20;;;6.10;;
39356;SDS011;25077;50.302;18.996;2022-10-15T09:47:23;9.30;;;5.60;;
39356;SDS011;25077;50.302;18.996;2022-10-15T09:50:34;9.27;;;5.27;;
39356;SDS011;25077;50.302;18.996;2022-10-15T09:53:46;10.23;;;5.70;;
39356;SDS011;25077;50.302;18.996;2022-10-15T09:56:53;10.67;;;5.13;;
39356;SDS011;25077;50.302;18.996;2022-10-15T09:59:58;9.80;;;5.30;;
39356;SDS011;25077;50.302;18.996;2022-10-15T10:03:04;9.97;;;4.93;;
39356;SDS011;25077;50.302;18.996;2022-10-15T10:06:08;8.13;;;5.20;;
39356;SDS011;25077;50.302;18.996;2022-10-15T10:09:20;8.90;;;5.00;;
39356;SDS011;25077;50.302;18.996;2022-10-15T10:12:26;6.10;;;4.70;;
39356;SDS011;25077;50.302;18.996;2022-10-15T10:15:30;9.53;;;5.03;;
39356;SDS011;25077;50.302;18.996;2022-10-15T10:18:36;7.57;;;5.30;;
39356;SDS011;25077;50.302;18.996;2022-10-15T10:21:39;7.73;;;4.97;;
39356;SDS011;25077;50.302;18.996;2022-10-15T10:24:42;7.80;;;5.00;;
39356;SDS011;25077;50.302;18.996;2022-10-15T10:27:45;11.13;;;5.10;;
39356;SDS011;25077;50.302;18.996;2022-10-15T10:30:51;7.17;;;4.67;;
39356;SDS011;25077;50.302;18.996;2022-10-15T10:34:04;9.27;;;4.80;;
39356;SDS011;25077;50.302;18.996;2022-10-15T10:37:06;10.17;;;4.77;;
39356;SDS011;25077;50.302;18.996;2022-10-15T10:40:18;11.50;;;4.73;;
39356;SDS011;25077;50.302;18.996;2022-10-15T10:43:26;6.60;;;4.73;;
39356;SDS011;25077;50.302;18.996;2022-10-15T10:46:29;5.37;;;4.60;;
39356;SDS011;25077;50.302;18.996;2022-10-15T10:49:33;8.10;;;4.80;;
39356;SDS011;25077;50.302;18.996;2022-10-15T10:52:37;7.77;;;5.30;;
39356;SDS011;25077;50.302;18.996;2022-10-15T10:55:40;12.23;;;4.80;;
39356;SDS011;25077;50.302;18.996;2022-10-15T10:58:46;9.03;;;5.20;;
39356;SDS011;25077;50.302;18.996;2022-10-15T11:01:53;13.67;;;5.90;;
39356;SDS011;25077;50.302;18.996;2022-10-15T11:04:57;9.47;;;5.37;;
39356;SDS011;25077;50.302;18.996;2022-10-15T11:08:02;9.40;;;4.97;;
39356;SDS011;25077;50.302;18.996;2022-10-15T11:11:16;7.63;;;4.70;;
39356;SDS011;25077;50.302;18.996;2022-10-15T11:14:26;6.97;;;4.70;;
39356;SDS011;25077;50.302;18.996;2022-10-15T11:17:35;7.20;;;5.37;;
39356;SDS011;25077;50.302;18.996;2022-10-15T11:20:48;7.77;;;4.80;;
39356;SDS011;25077;50.302;18.996;2022-10-15T11:24:03;8.60;;;4.87;;
39356;SDS011;25077;50.302;18.996;2022-10-15T11:27:16;6.67;;;4.70;;
39356;SDS011;25077;50.302;18.996;2022-10-15T11:30:30;9.77;;;4.57;;
39356;SDS011;25077;50.302;18.996;2022-10-15T11:33:44;8.93;;;5.17;;
39356;SDS011;25077;50.302;18.996;2022-10-15T11:36:59;11.33;;;5.10;;
39356;SDS011;25077;50.302;18.996;2022-10-15T11:40:17;9.67;;;4.87;;
39356;SDS011;25077;50.302;18.996;2022-10-15T11:43:26;7.90;;;4.60;;
39356;SDS011;25077;50.302;18.996;2022-10-15T11:46:40;7.30;;;5.00;;
39356;SDS011;25077;50.302;18.996;2022-10-15T11:49:49;8.37;;;4.73;;
39356;SDS011;25077;50.302;18.996;2022-10-15T11:53:07;8.00;;;5.00;;
39356;SDS011;25077;50.302;18.996;2022-10-15T11:56:26;7.80;;;5.00;;
39356;SDS011;25077;50.302;18.996;2022-10-15T11:59:34;6.73;;;4.33;;
39356;SDS011;25077;50.302;18.996;2022-10-15T12:02:39;6.13;;;4.60;;
39356;SDS011;25077;50.302;18.996;2022-10-15T12:05:43;9.53;;;4.87;;
39356;SDS011;25077;50.302;18.996;2022-10-15T12:08:50;7.67;;;4.77;;
39356;SDS011;25077;50.302;18.996;2022-10-15T12:11:56;8.33;;;4.50;;
39356;SDS011;25077;50.302;18.996;2022-10-15T12:15:09;14.63;;;5.33;;
39356;SDS011;25077;50.302;18.996;2022-10-15T12:18:24;7.00;;;4.70;;
39356;SDS011;25077;50.302;18.996;2022-10-15T12:21:35;11.50;;;5.30;;
39356;SDS011;25077;50.302;18.996;2022-10-15T12:24:51;8.03;;;5.03;;
39356;SDS011;25077;50.302;18.996;2022-10-15T12:27:58;5.67;;;4.20;;
39356;SDS011;25077;50.302;18.996;2022-10-15T12:31:01;7.67;;;4.77;;
39356;SDS011;25077;50.302;18.996;2022-10-15T12:34:06;8.73;;;5.10;;
39356;SDS011;25077;50.302;18.996;2022-10-15T12:37:28;8.33;;;4.47;;
39356;SDS011;25077;50.302;18.996;2022-10-15T12:40:33;8.97;;;4.90;;
39356;SDS011;25077;50.302;18.996;2022-10-15T12:43:38;9.73;;;5.03;;
39356;SDS011;25077;50.302;18.996;2022-10-15T12:46:43;7.07;;;4.80;;
39356;SDS011;25077;50.302;18.996;2022-10-15T12:49:46;9.10;;;4.80;;
39356;SDS011;25077;50.302;18.996;2022-10-15T12:53:02;10.40;;;5.23;;
39356;SDS011;25077;50.302;18.996;2022-10-15T12:56:19;11.40;;;5.30;;
39356;SDS011;25077;50.302;18.996;2022-10-15T12:59:28;7.37;;;4.97;;
39356;SDS011;25077;50.302;18.996;2022-10-15T13:02:36;9.67;;;5.03;;
39356;SDS011;25077;50.302;18.996;2022-10-15T13:05:41;6.20;;;4.70;;
39356;SDS011;25077;50.302;18.996;2022-10-15T13:08:44;9.10;;;4.70;;
39356;SDS011;25077;50.302;18.996;2022-10-15T13:11:51;9.17;;;5.00;;
39356;SDS011;25077;50.302;18.996;2022-10-15T13:14:55;7.60;;;4.57;;
39356;SDS011;25077;50.302;18.996;2022-10-15T13:18:04;6.77;;;4.90;;
39356;SDS011;25077;50.302;18.996;2022-10-15T13:21:09;8.63;;;4.60;;
39356;SDS011;25077;50.302;18.996;2022-10-15T13:24:13;7.73;;;4.83;;
39356;SDS011;25077;50.302;18.996;2022-10-15T13:27:22;7.03;;;4.87;;
39356;SDS011;25077;50.302;18.996;2022-10-15T13:30:25;8.23;;;4.90;;
39356;SDS011;25077;50.302;18.996;2022-10-15T13:33:27;9.07;;;5.10;;
39356;SDS011;25077;50.302;18.996;2022-10-15T13:36:30;7.83;;;4.77;;
39356;SDS011;25077;50.302;18.996;2022-10-15T13:39:34;6.67;;;4.60;;
39356;SDS011;25077;50.302;18.996;2022-10-15T13:42:39;9.77;;;4.97;;
39356;SDS011;25077;50.302;18.996;2022-10-15T13:45:59;8.47;;;4.70;;
39356;SDS011;25077;50.302;18.996;2022-10-15T13:49:02;8.87;;;4.50;;
39356;SDS011;25077;50.302;18.996;2022-10-15T13:52:11;6.53;;;4.67;;
39356;SDS011;25077;50.302;18.996;2022-10-15T13:55:15;6.10;;;4.90;;
39356;SDS011;25077;50.302;18.996;2022-10-15T13:58:22;7.80;;;4.97;;
39356;SDS011;25077;50.302;18.996;2022-10-15T14:01:26;10.47;;;5.30;;
39356;SDS011;25077;50.302;18.996;2022-10-15T14:04:29;10.07;;;4.90;;
39356;SDS011;25077;50.302;18.996;2022-10-15T14:07:32;7.37;;;4.87;;
39356;SDS011;25077;50.302;18.996;2022-10-15T14:10:34;10.83;;;5.10;;
39356;SDS011;25077;50.302;18.996;2022-10-15T14:13:43;9.60;;;4.87;;
39356;SDS011;25077;50.302;18.996;2022-10-15T14:16:45;8.50;;;4.60;;
39356;SDS011;25077;50.302;18.996;2022-10-15T14:19:49;11.67;;;5.70;;
39356;SDS011;25077;50.302;18.996;2022-10-15T14:22:55;10.50;;;5.10;;
39356;SDS011;25077;50.302;18.996;2022-10-15T14:25:57;8.23;;;5.77;;
39356;SDS011;25077;50.302;18.996;2022-10-15T14:29:02;8.57;;;5.07;;
39356;SDS011;25077;50.302;18.996;2022-10-15T14:32:18;8.10;;;5.40;;
39356;SDS011;25077;50.302;18.996;2022-10-15T14:35:23;7.80;;;5.17;;
39356;SDS011;25077;50.302;18.996;2022-10-15T14:38:30;10.30;;;5.50;;
39356;SDS011;25077;50.302;18.996;2022-10-15T14:41:32;10.03;;;5.10;;
39356;SDS011;25077;50.302;18.996;2022-10-15T14:44:40;8.40;;;5.63;;
39356;SDS011;25077;50.302;18.996;2022-10-15T14:47:43;9.20;;;5.60;;
39356;SDS011;25077;50.302;18.996;2022-10-15T14:50:47;10.57;;;5.10;;
39356;SDS011;25077;50.302;18.996;2022-10-15T14:53:49;12.43;;;5.53;;
39356;SDS011;25077;50.302;18.996;2022-10-15T14:56:53;7.23;;;5.23;;
39356;SDS011;25077;50.302;18.996;2022-10-15T14:59:56;17.73;;;6.07;;
39356;SDS011;25077;50.302;18.996;2022-10-15T15:03:00;13.43;;;5.70;;
39356;SDS011;25077;50.302;18.996;2022-10-15T15:06:05;9.73;;;5.93;;
39356;SDS011;25077;50.302;18.996;2022-10-15T15:09:08;11.07;;;4.80;;
39356;SDS011;25077;50.302;18.996;2022-10-15T15:12:14;7.67;;;5.40;;
39356;SDS011;25077;50.302;18.996;2022-10-15T15:15:24;9.13;;;5.03;;
39356;SDS011;25077;50.302;18.996;2022-10-15T15:18:27;11.07;;;5.30;;
39356;SDS011;25077;50.302;18.996;2022-10-15T15:21:29;12.27;;;5.40;;
39356;SDS011;25077;50.302;18.996;2022-10-15T15:24:31;9.23;;;4.87;;
39356;SDS011;25077;50.302;18.996;2022-10-15T15:27:33;9.20;;;5.10;;
39356;SDS011;25077;50.302;18.996;2022-10-15T15:30:38;8.53;;;5.90;;
39356;SDS011;25077;50.302;18.996;2022-10-15T15:33:42;9.70;;;5.47;;
39356;SDS011;25077;50.302;18.996;2022-10-15T15:36:44;13.20;;;5.60;;
39356;SDS011;25077;50.302;18.996;2022-10-15T15:39:46;6.87;;;5.17;;
39356;SDS011;25077;50.302;18.996;2022-10-15T15:42:49;8.37;;;5.23;;
39356;SDS011;25077;50.302;18.996;2022-10-15T15:45:53;8.80;;;5.50;;
39356;SDS011;25077;50.302;18.996;2022-10-15T15:48:55;7.17;;;5.17;;
39356;SDS011;25077;50.302;18.996;2022-10-15T15:51:58;8.30;;;5.03;;
39356;SDS011;25077;50.302;18.996;2022-10-15T15:55:08;9.07;;;5.17;;
39356;SDS011;25077;50.302;18.996;2022-10-15T15:58:12;10.30;;;5.27;;
39356;SDS011;25077;50.302;18.996;2022-10-15T16:01:15;10.67;;;5.80;;
39356;SDS011;25077;50.302;18.996;2022-10-15T16:04:18;8.20;;;5.20;;
39356;SDS011;25077;50.302;18.996;2022-10-15T16:07:20;9.57;;;5.83;;
39356;SDS011;25077;50.302;18.996;2022-10-15T16:10:22;9.63;;;6.00;;
39356;SDS011;25077;50.302;18.996;2022-10-15T16:13:24;9.23;;;5.80;;
39356;SDS011;25077;50.302;18.996;2022-10-15T16:16:28;9.47;;;5.80;;
39356;SDS011;25077;50.302;18.996;2022-10-15T16:19:30;12.10;;;5.93;;
39356;SDS011;25077;50.302;18.996;2022-10-15T16:22:32;10.63;;;6.20;;
39356;SDS011;25077;50.302;18.996;2022-10-15T16:25:34;11.70;;;6.23;;
39356;SDS011;25077;50.302;18.996;2022-10-15T16:28:36;8.47;;;5.73;;
39356;SDS011;25077;50.302;18.996;2022-10-15T16:31:39;10.70;;;5.73;;
39356;SDS011;25077;50.302;18.996;2022-10-15T16:34:41;9.97;;;6.10;;
39356;SDS011;25077;50.302;18.996;2022-10-15T16:37:43;12.70;;;6.53;;
39356;SDS011;25077;50.302;18.996;2022-10-15T16:40:45;9.63;;;6.00;;
39356;SDS011;25077;50.302;18.996;2022-10-15T16:43:47;14.27;;;6.70;;
39356;SDS011;25077;50.302;18.996;2022-10-15T16:46:51;11.57;;;6.40;;
39356;SDS011;25077;50.302;18.996;2022-10-15T16:49:54;10.77;;;6.30;;
39356;SDS011;25077;50.302;18.996;2022-10-15T16:52:55;10.37;;;6.47;;
39356;SDS011;25077;50.302;18.996;2022-10-15T16:55:58;16.10;;;7.53;;
39356;SDS011;25077;50.302;18.996;2022-10-15T16:59:02;11.47;;;7.20;;
39356;SDS011;25077;50.302;18.996;2022-10-15T17:02:05;13.57;;;8.37;;
39356;SDS011;25077;50.302;18.996;2022-10-15T17:05:09;13.23;;;7.73;;
39356;SDS011;25077;50.302;18.996;2022-10-15T17:08:11;15.27;;;8.27;;
39356;SDS011;25077;50.302;18.996;2022-10-15T17:11:14;14.07;;;9.07;;
39356;SDS011;25077;50.302;18.996;2022-10-15T17:14:18;14.00;;;8.50;;
39356;SDS011;25077;50.302;18.996;2022-10-15T17:17:22;12.83;;;9.23;;
39356;SDS011;25077;50.302;18.996;2022-10-15T17:20:24;17.90;;;9.30;;
39356;SDS011;25077;50.302;18.996;2022-10-15T17:23:26;15.00;;;7.63;;
39356;SDS011;25077;50.302;18.996;2022-10-15T17:26:31;15.57;;;8.73;;
39356;SDS011;25077;50.302;18.996;2022-10-15T17:29:35;14.43;;;7.93;;
39356;SDS011;25077;50.302;18.996;2022-10-15T17:32:39;14.43;;;8.13;;
39356;SDS011;25077;50.302;18.996;2022-10-15T17:35:41;15.57;;;8.13;;
39356;SDS011;25077;50.302;18.996;2022-10-15T17:38:44;14.43;;;8.10;;
39356;SDS011;25077;50.302;18.996;2022-10-15T17:41:46;15.77;;;9.33;;
39356;SDS011;25077;50.302;18.996;2022-10-15T17:44:50;13.00;;;8.77;;
39356;SDS011;25077;50.302;18.996;2022-10-15T17:47:53;16.97;;;9.70;;
39356;SDS011;25077;50.302;18.996;2022-10-15T17:50:57;13.77;;;9.03;;
39356;SDS011;25077;50.302;18.996;2022-10-15T17:54:00;14.73;;;9.17;;
39356;SDS011;25077;50.302;18.996;2022-10-15T17:57:02;15.73;;;9.00;;
39356;SDS011;25077;50.302;18.996;2022-10-15T18:00:05;14.20;;;9.23;;
39356;SDS011;25077;50.302;18.996;2022-10-15T18:03:14;18.43;;;9.60;;
39356;SDS011;25077;50.302;18.996;2022-10-15T18:06:16;19.53;;;9.97;;